Time;durP1;ratioP1;P1;durP2;ratioP2;P2;SDS_P1;SDS_P2;PMS_P1;PMS_P2;Temp;Humidity;BMP_temperature;BMP_pressure;BME280_temperature;BME280_humidity;BME280_pressure;Samples;Min_cycle;Max_cycle;Signal;HPM_P1;HPM_P2
2021/11/11 00:01:05;;;;;;;34.58;23.83;;;1.80;99.90;;;;;;5013479;28;20242;-76
2021/11/11 00:03:33;;;;;;;34.97;24.13;;;1.80;99.90;;;;;;5022353;28;20213;-79
2021/11/11 00:06:00;;;;;;;37.25;24.27;;;1.80;99.90;;;;;;5035518;28;20213;-77
2021/11/11 00:08:28;;;;;;;37.20;23.45;;;1.70;99.90;;;;;;5035005;28;20195;-79
2021/11/11 00:10:55;;;;;;;33.22;23.50;;;1.70;99.90;;;;;;5035601;28;20233;-78
2021/11/11 00:13:22;;;;;;;37.22;24.85;;;1.70;99.90;;;;;;5031982;28;20203;-77
2021/11/11 00:15:49;;;;;;;35.10;22.95;;;1.70;99.90;;;;;;5016975;28;20239;-77
2021/11/11 00:18:17;;;;;;;33.22;23.23;;;1.60;99.90;;;;;;5019841;28;20236;-76
2021/11/11 00:20:44;;;;;;;35.58;24.58;;;1.60;99.90;;;;;;5036124;28;20246;-77
2021/11/11 00:23:12;;;;;;;34.10;24.00;;;1.50;99.90;;;;;;5035084;28;20804;-77
2021/11/11 00:25:40;;;;;;;34.05;23.35;;;1.50;99.90;;;;;;5017396;28;20577;-77
2021/11/11 00:28:07;;;;;;;34.95;24.10;;;1.50;99.90;;;;;;5016294;28;20239;-77
2021/11/11 00:30:35;;;;;;;31.73;23.45;;;1.50;99.90;;;;;;5035903;28;20290;-77
2021/11/11 00:33:03;;;;;;;40.08;23.50;;;1.40;99.90;;;;;;5035672;28;20209;-78
2021/11/11 00:35:31;;;;;;;39.15;23.55;;;1.30;99.90;;;;;;5016548;28;20211;-77
2021/11/11 00:37:59;;;;;;;37.97;24.98;;;1.20;99.90;;;;;;5018538;28;20238;-77
2021/11/11 00:40:28;;;;;;;39.78;25.50;;;1.20;99.90;;;;;;5035230;28;20214;-78
2021/11/11 00:42:56;;;;;;;40.67;26.83;;;1.20;99.90;;;;;;5032331;28;20721;-78
2021/11/11 00:45:23;;;;;;;38.15;26.73;;;1.20;99.90;;;;;;5015445;28;20211;-78
2021/11/11 00:47:50;;;;;;;43.55;26.80;;;1.30;99.90;;;;;;5015373;28;20730;-78
2021/11/11 00:50:20;;;;;;;38.88;24.80;;;1.30;99.90;;;;;;5015507;28;20209;-78
2021/11/11 00:52:48;;;;;;;38.00;24.13;;;1.20;99.90;;;;;;5016500;28;20219;-77
2021/11/11 00:55:15;;;;;;;37.40;23.92;;;1.20;99.90;;;;;;5015475;28;20690;-77
2021/11/11 00:57:42;;;;;;;35.13;23.83;;;1.20;99.90;;;;;;5015143;28;20231;-78
2021/11/11 01:00:13;;;;;;;34.55;23.13;;;1.20;99.90;;;;;;5015504;28;20218;-77
2021/11/11 01:02:41;;;;;;;40.60;24.48;;;1.10;99.90;;;;;;5015501;28;20625;-78
2021/11/11 01:05:09;;;;;;;33.88;23.40;;;1.10;99.90;;;;;;5034234;28;20211;-77
2021/11/11 01:07:36;;;;;;;46.75;26.58;;;1.10;99.90;;;;;;5036599;28;20232;-78
2021/11/11 01:10:05;;;;;;;40.50;26.25;;;1.10;99.90;;;;;;5015752;28;20258;-78
2021/11/11 01:12:32;;;;;;;38.92;25.00;;;1.10;99.90;;;;;;5014080;28;20318;-78
2021/11/11 01:14:59;;;;;;;41.45;23.85;;;1.10;99.90;;;;;;5031293;28;20212;-78
2021/11/11 01:17:27;;;;;;;39.15;24.20;;;1.10;99.90;;;;;;5035397;28;20714;-78
2021/11/11 01:19:54;;;;;;;36.33;23.48;;;1.10;99.90;;;;;;5034408;28;20285;-78
2021/11/11 01:22:21;;;;;;;36.42;23.60;;;1.10;99.90;;;;;;5034686;28;20246;-79
2021/11/11 01:24:48;;;;;;;36.53;25.08;;;1.10;99.90;;;;;;5020289;28;20215;-78
2021/11/11 01:27:15;;;;;;;35.25;23.63;;;1.10;99.90;;;;;;5015168;28;20242;-76
2021/11/11 01:29:42;;;;;;;49.22;25.80;;;1.10;99.90;;;;;;5032425;28;20737;-77
2021/11/11 01:32:09;;;;;;;37.47;24.23;;;1.00;99.90;;;;;;5034874;28;20605;-77
2021/11/11 01:34:38;;;;;;;44.42;26.80;;;1.00;99.90;;;;;;5034465;28;20205;-78
2021/11/11 01:37:05;;;;;;;35.75;24.45;;;1.00;99.90;;;;;;5034941;28;20333;-77
2021/11/11 01:39:32;;;;;;;40.85;25.48;;;1.00;99.90;;;;;;5034670;28;20299;-77
2021/11/11 01:41:59;;;;;;;35.45;24.27;;;1.00;99.90;;;;;;5036587;28;20206;-77
2021/11/11 01:44:26;;;;;;;36.42;26.52;;;1.00;99.90;;;;;;5035365;28;20199;-77
2021/11/11 01:46:53;;;;;;;46.58;24.90;;;1.10;99.90;;;;;;5036621;28;20291;-76
2021/11/11 01:49:19;;;;;;;34.25;24.98;;;1.10;99.90;;;;;;5024301;28;20286;-77
2021/11/11 01:51:48;;;;;;;39.10;25.10;;;1.20;99.90;;;;;;5023529;28;20230;-78
2021/11/11 01:54:15;;;;;;;36.65;24.23;;;1.20;99.90;;;;;;5034181;28;20205;-78
2021/11/11 01:56:43;;;;;;;35.80;24.45;;;1.20;99.90;;;;;;5042580;28;20229;-77
2021/11/11 01:59:10;;;;;;;39.17;25.58;;;1.20;99.90;;;;;;5032303;28;20306;-77
2021/11/11 02:01:36;;;;;;;38.55;24.58;;;1.30;99.90;;;;;;5022052;28;20211;-77
2021/11/11 02:04:04;;;;;;;40.45;24.20;;;1.40;99.90;;;;;;5014615;28;20207;-77
2021/11/11 02:06:31;;;;;;;37.70;24.52;;;1.40;99.90;;;;;;5014169;28;20592;-77
2021/11/11 02:09:00;;;;;;;41.03;24.50;;;1.40;99.90;;;;;;5022428;28;20290;-76
2021/11/11 02:11:26;;;;;;;36.25;23.92;;;1.40;99.90;;;;;;5045838;28;20235;-76
2021/11/11 02:13:53;;;;;;;37.70;24.13;;;1.50;99.90;;;;;;5038959;28;20239;-78
2021/11/11 02:16:20;;;;;;;45.20;24.08;;;1.60;99.90;;;;;;5024671;28;20310;-77
2021/11/11 02:18:47;;;;;;;60.85;28.05;;;1.60;99.90;;;;;;5035956;28;20207;-77
2021/11/11 02:21:16;;;;;;;50.42;26.73;;;1.50;99.90;;;;;;5045347;28;20214;-77
2021/11/11 02:23:44;;;;;;;45.67;26.02;;;1.50;99.90;;;;;;5044666;28;20293;-76
2021/11/11 02:26:11;;;;;;;45.63;25.17;;;1.40;99.90;;;;;;5043101;28;20580;-77
2021/11/11 02:28:38;;;;;;;64.45;29.08;;;1.50;99.90;;;;;;5032680;28;20743;-78
2021/11/11 02:31:06;;;;;;;52.03;28.25;;;1.40;99.90;;;;;;5031596;28;20214;-78
2021/11/11 02:33:33;;;;;;;47.38;26.58;;;1.40;99.90;;;;;;5038938;28;20661;-77
2021/11/11 02:36:00;;;;;;;49.40;27.00;;;1.40;99.90;;;;;;5045452;28;20215;-77
2021/11/11 02:38:28;;;;;;;57.95;30.08;;;1.50;99.90;;;;;;5019260;28;20208;-78
2021/11/11 02:40:56;;;;;;;58.22;27.85;;;1.50;99.90;;;;;;5022297;28;20680;-78
2021/11/11 02:43:25;;;;;;;41.85;26.10;;;1.50;99.90;;;;;;5036644;28;20212;-77
2021/11/11 02:45:52;;;;;;;45.47;26.30;;;1.50;99.90;;;;;;5033479;28;20201;-76
2021/11/11 02:48:21;;;;;;;42.35;24.85;;;1.70;99.90;;;;;;5033936;28;20227;-76
2021/11/11 02:50:49;;;;;;;47.70;26.70;;;1.70;99.90;;;;;;5018295;28;20204;-77
2021/11/11 02:53:17;;;;;;;57.08;27.38;;;1.60;99.90;;;;;;5013256;28;20232;-78
2021/11/11 02:55:46;;;;;;;66.13;27.73;;;1.60;99.90;;;;;;5026671;28;20234;-78
2021/11/11 02:58:13;;;;;;;46.63;25.15;;;1.50;99.90;;;;;;5032457;28;20215;-77
2021/11/11 03:00:45;;;;;;;43.88;24.77;;;1.50;99.90;;;;;;5031037;28;20832;-76
2021/11/11 03:03:12;;;;;;;49.63;26.92;;;1.50;99.90;;;;;;5032367;28;20211;-77
2021/11/11 03:05:39;;;;;;;48.15;27.05;;;1.50;99.90;;;;;;5019474;28;20207;-77
2021/11/11 03:08:07;;;;;;;47.30;26.38;;;1.50;99.90;;;;;;5013362;28;20712;-77
2021/11/11 03:10:37;;;;;;;50.75;27.90;;;1.60;99.90;;;;;;5012319;28;20287;-77
2021/11/11 03:13:05;;;;;;;45.92;27.60;;;1.60;99.90;;;;;;5016503;28;20246;-77
2021/11/11 03:15:33;;;;;;;42.78;25.92;;;1.60;99.90;;;;;;5032271;28;20234;-76
2021/11/11 03:18:01;;;;;;;39.60;25.27;;;1.70;99.90;;;;;;5028247;28;20220;-76
2021/11/11 03:20:28;;;;;;;46.92;27.00;;;1.60;99.90;;;;;;5011889;28;20282;-78
2021/11/11 03:22:55;;;;;;;52.10;26.45;;;1.50;99.90;;;;;;5012648;28;20213;-77
2021/11/11 03:25:25;;;;;;;45.05;27.35;;;1.60;99.90;;;;;;5012245;28;20673;-77
2021/11/11 03:27:52;;;;;;;49.22;27.27;;;1.60;99.90;;;;;;5018821;28;20328;-77
2021/11/11 03:30:22;;;;;;;40.72;24.92;;;1.60;99.90;;;;;;5030363;28;20247;-78
2021/11/11 03:32:49;;;;;;;57.45;26.75;;;1.60;99.90;;;;;;5031346;28;20226;-78
2021/11/11 03:35:17;;;;;;;41.58;26.27;;;1.60;99.90;;;;;;5036843;28;20215;-79
2021/11/11 03:37:45;;;;;;;47.92;27.33;;;1.50;99.90;;;;;;5059287;28;20576;-78
2021/11/11 03:40:14;;;;;;;44.25;25.40;;;1.60;99.90;;;;;;5041952;28;20314;-78
2021/11/11 03:42:42;;;;;;;55.03;27.73;;;1.60;99.90;;;;;;5019942;28;20205;-77
2021/11/11 03:45:10;;;;;;;70.75;31.13;;;1.60;99.90;;;;;;5018930;28;20270;-77
2021/11/11 03:47:38;;;;;;;49.35;26.80;;;1.70;99.90;;;;;;5018628;28;20289;-77
2021/11/11 03:50:07;;;;;;;51.97;26.63;;;1.70;99.90;;;;;;5018608;28;20208;-77
2021/11/11 03:52:34;;;;;;;50.65;29.05;;;1.80;99.90;;;;;;5018280;28;20279;-77
2021/11/11 03:55:01;;;;;;;55.92;27.90;;;1.80;99.90;;;;;;5026263;28;20261;-77
2021/11/11 03:57:28;;;;;;;53.08;26.65;;;1.90;99.90;;;;;;5037533;28;20253;-78
2021/11/11 03:59:57;;;;;;;51.42;26.20;;;1.90;99.90;;;;;;5018907;28;20243;-78
2021/11/11 04:02:24;;;;;;;54.63;28.85;;;1.90;99.90;;;;;;5025532;28;20208;-77
2021/11/11 04:04:54;;;;;;;58.40;25.90;;;1.80;99.90;;;;;;5037583;28;20195;-78
2021/11/11 04:07:21;;;;;;;51.13;26.30;;;1.90;99.90;;;;;;5038353;28;20246;-77
2021/11/11 04:09:48;;;;;;;53.80;26.50;;;2.00;99.90;;;;;;5038278;28;20290;-77
2021/11/11 04:12:16;;;;;;;52.63;27.92;;;1.90;99.90;;;;;;5038896;28;20229;-77
2021/11/11 04:14:43;;;;;;;44.53;24.63;;;1.90;99.90;;;;;;5020748;28;20505;-77
2021/11/11 04:17:11;;;;;;;50.55;25.48;;;2.00;99.90;;;;;;5031921;28;20223;-77
2021/11/11 04:19:37;;;;;;;46.10;25.42;;;2.00;99.90;;;;;;5038124;28;20214;-77
2021/11/11 04:22:06;;;;;;;43.17;24.63;;;2.00;99.90;;;;;;5038074;28;20210;-77
2021/11/11 04:24:34;;;;;;;43.03;22.00;;;2.10;99.90;;;;;;5038496;28;20552;-77
2021/11/11 04:27:04;;;;;;;51.50;25.52;;;2.10;99.90;;;;;;5019953;28;20227;-77
2021/11/11 04:29:33;;;;;;;48.17;24.88;;;2.10;99.90;;;;;;5019580;28;20242;-77
2021/11/11 04:32:01;;;;;;;47.88;25.20;;;2.20;99.90;;;;;;5033161;28;20274;-77
2021/11/11 04:34:30;;;;;;;56.55;25.88;;;2.20;99.90;;;;;;5026057;28;20258;-75
2021/11/11 04:42:54;;;;;;;47.28;23.33;;;2.30;99.90;;;;;;5039050;28;20202;-77
2021/11/11 05:01:44;;;;;;;41.22;23.95;;;2.20;99.90;;;;;;5025642;28;20263;-78
2021/11/11 05:04:11;;;;;;;55.42;25.65;;;2.30;99.90;;;;;;5038363;28;20218;-78
2021/11/11 05:06:39;;;;;;;44.60;23.85;;;2.30;99.90;;;;;;5103942;23;20215;-78
2021/11/11 05:09:06;;;;;;;47.40;24.48;;;2.30;99.90;;;;;;5026548;28;20224;-80
2021/11/11 05:11:34;;;;;;;65.50;26.77;;;2.30;99.90;;;;;;5031485;28;20227;-78
2021/11/11 05:14:01;;;;;;;56.35;25.67;;;2.30;99.90;;;;;;5034217;28;20254;-78
2021/11/11 05:16:28;;;;;;;48.88;24.25;;;2.30;99.90;;;;;;5031777;28;20254;-79
2021/11/11 05:18:55;;;;;;;48.85;24.95;;;2.30;99.90;;;;;;5013353;28;20212;-80
2021/11/11 05:21:22;;;;;;;36.75;22.58;;;2.30;99.90;;;;;;5013701;28;20212;-79
2021/11/11 05:23:54;;;;;;;43.30;23.25;;;2.40;99.90;;;;;;5015309;28;20268;-80
2021/11/11 05:26:22;;;;;;;45.28;24.95;;;2.40;99.90;;;;;;5009560;28;20215;-78
2021/11/11 05:28:51;;;;;;;37.13;22.02;;;2.40;99.90;;;;;;5011857;28;20208;-78
2021/11/11 05:31:18;;;;;;;53.42;26.15;;;2.40;99.90;;;;;;5016466;28;20208;-78
2021/11/11 05:33:46;;;;;;;44.78;24.33;;;2.40;99.90;;;;;;5014519;28;20236;-78
2021/11/11 05:36:13;;;;;;;40.08;23.67;;;2.50;99.90;;;;;;5015009;28;20235;-78
2021/11/11 05:38:43;;;;;;;47.50;24.85;;;2.50;99.90;;;;;;5007902;28;20232;-78
2021/11/11 05:41:11;;;;;;;41.92;23.85;;;2.50;99.90;;;;;;5002694;28;20239;-79
2021/11/11 05:43:38;;;;;;;38.97;22.88;;;2.60;99.90;;;;;;5001553;28;20208;-77
2021/11/11 05:46:07;;;;;;;47.45;24.50;;;2.60;99.90;;;;;;5003006;28;20215;-78
2021/11/11 05:48:34;;;;;;;42.17;23.13;;;2.60;99.90;;;;;;5009201;28;20709;-79
2021/11/11 05:51:01;;;;;;;52.78;23.98;;;2.60;99.90;;;;;;5009158;28;20575;-79
2021/11/11 05:53:29;;;;;;;42.60;23.02;;;2.60;99.90;;;;;;5010171;28;20240;-77
2021/11/11 05:55:57;;;;;;;42.15;23.00;;;2.60;99.90;;;;;;5008990;28;20250;-78
2021/11/11 05:58:24;;;;;;;46.00;21.52;;;2.70;99.90;;;;;;5004193;28;20717;-78
2021/11/11 06:00:54;;;;;;;39.80;20.70;;;2.60;99.90;;;;;;5003611;28;20201;-78
2021/11/11 06:03:23;;;;;;;46.22;21.67;;;2.50;99.90;;;;;;5000040;28;20216;-80
2021/11/11 06:05:50;;;;;;;44.03;23.05;;;2.50;99.90;;;;;;4999721;28;20674;-78
2021/11/11 06:08:21;;;;;;;39.67;22.67;;;2.40;99.90;;;;;;5004756;28;20236;-78
2021/11/11 06:10:48;;;;;;;41.80;22.40;;;2.50;99.90;;;;;;5002914;28;20209;-78
2021/11/11 06:13:16;;;;;;;38.97;24.08;;;2.50;99.90;;;;;;5003756;28;20225;-78
2021/11/11 06:15:45;;;;;;;48.80;25.67;;;2.50;99.90;;;;;;5003312;28;20235;-78
2021/11/11 06:18:13;;;;;;;47.50;23.75;;;2.60;99.90;;;;;;5002924;28;20236;-79
2021/11/11 06:20:45;;;;;;;42.63;23.60;;;2.60;99.90;;;;;;5000595;28;20274;-78
2021/11/11 06:23:16;;;;;;;45.75;24.05;;;2.60;99.90;;;;;;5001400;28;20189;-77
2021/11/11 06:25:44;;;;;;;48.15;23.70;;;2.70;99.90;;;;;;5002198;28;20232;-78
2021/11/11 06:28:11;;;;;;;34.70;20.55;;;2.60;99.90;;;;;;4999090;28;20228;-78
2021/11/11 06:30:42;;;;;;;48.92;24.35;;;2.60;99.90;;;;;;4998307;28;20216;-78
2021/11/11 06:33:13;;;;;;;38.92;23.13;;;2.70;99.90;;;;;;4997839;28;20228;-78
2021/11/11 06:35:44;;;;;;;50.42;22.85;;;2.70;99.90;;;;;;4998783;28;20201;-78
2021/11/11 06:38:13;;;;;;;43.47;23.33;;;2.70;99.90;;;;;;4998901;28;20232;-78
2021/11/11 06:40:42;;;;;;;54.10;23.17;;;2.80;99.90;;;;;;4999012;28;20535;-78
2021/11/11 06:43:09;;;;;;;46.38;23.63;;;2.80;99.90;;;;;;4999406;28;20261;-78
2021/11/11 06:45:41;;;;;;;41.40;23.35;;;2.90;99.90;;;;;;4998849;28;20816;-78
2021/11/11 06:48:09;;;;;;;42.10;25.10;;;2.90;99.90;;;;;;5000279;28;20229;-78
2021/11/11 06:50:41;;;;;;;46.47;25.45;;;3.00;99.90;;;;;;5002681;28;20200;-78
2021/11/11 06:53:10;;;;;;;51.20;25.20;;;3.00;99.90;;;;;;5012139;28;20231;-78
2021/11/11 06:55:39;;;;;;;56.67;24.65;;;3.00;99.90;;;;;;5017599;28;20196;-79
2021/11/11 06:58:10;;;;;;;49.03;25.80;;;3.00;99.90;;;;;;5015983;28;20229;-79
2021/11/11 07:00:38;;;;;;;45.42;23.50;;;2.90;99.90;;;;;;4982486;28;20280;-78
2021/11/11 07:03:09;;;;;;;63.97;25.73;;;2.80;99.90;;;;;;4981232;28;20219;-77
2021/11/11 07:05:37;;;;;;;62.05;27.63;;;2.70;99.90;;;;;;4982323;28;20252;-77
2021/11/11 07:08:10;;;;;;;47.33;24.20;;;2.50;99.90;;;;;;4987592;28;20233;-79
2021/11/11 07:10:38;;;;;;;72.88;27.42;;;2.50;99.90;;;;;;4993539;28;20219;-80
2021/11/11 07:13:08;;;;;;;50.67;25.38;;;2.50;99.90;;;;;;4995221;28;20583;-78
2021/11/11 07:15:38;;;;;;;54.22;25.60;;;2.60;99.90;;;;;;4996433;28;20185;-78
2021/11/11 07:18:06;;;;;;;48.63;24.80;;;2.60;99.90;;;;;;4991668;28;20217;-79
2021/11/11 07:20:34;;;;;;;48.67;26.58;;;2.60;99.90;;;;;;4989582;28;20221;-79
2021/11/11 07:23:03;;;;;;;56.17;28.83;;;2.50;99.90;;;;;;4979025;28;20209;-79
2021/11/11 07:25:33;;;;;;;58.85;26.98;;;2.40;99.90;;;;;;4979317;28;20271;-78
2021/11/11 07:28:03;;;;;;;62.00;28.38;;;2.40;99.90;;;;;;5089818;23;20250;-79
2021/11/11 07:30:33;;;;;;;65.00;28.35;;;2.40;99.90;;;;;;5030364;28;20184;-79
2021/11/11 07:33:01;;;;;;;57.90;26.00;;;2.50;99.90;;;;;;5032783;28;20286;-78
2021/11/11 07:35:33;;;;;;;69.20;30.65;;;2.50;99.90;;;;;;5032736;28;20222;-79
2021/11/11 07:38:16;;;;;;;62.40;28.27;;;2.60;99.90;;;;;;5033587;28;20270;-80
2021/11/11 07:40:46;;;;;;;55.72;26.17;;;2.90;99.90;;;;;;5033143;28;20209;-80
2021/11/11 07:43:18;;;;;;;54.42;26.67;;;3.00;99.90;;;;;;5027732;28;20267;-80
2021/11/11 07:46:25;;;;;;;52.22;26.23;;;3.00;99.90;;;;;;5020102;28;20208;-81
2021/11/11 07:48:56;;;;;;;58.97;27.00;;;3.10;99.90;;;;;;5021509;28;20208;-80
2021/11/11 07:51:25;;;;;;;59.15;27.15;;;3.30;99.90;;;;;;5023861;28;20211;-79
2021/11/11 07:53:52;;;;;;;62.75;26.33;;;3.40;99.90;;;;;;5024546;28;20266;-79
2021/11/11 07:56:20;;;;;;;58.67;27.23;;;3.40;99.90;;;;;;5026538;28;20214;-80
2021/11/11 07:58:49;;;;;;;50.85;24.73;;;3.40;99.90;;;;;;5036831;28;20200;-79
2021/11/11 08:01:16;;;;;;;55.20;25.40;;;3.40;99.90;;;;;;5021394;28;20207;-81
2021/11/11 08:03:43;;;;;;;51.00;26.90;;;3.40;99.90;;;;;;5010258;28;20199;-79
2021/11/11 08:06:11;;;;;;;46.90;25.25;;;3.50;99.90;;;;;;5021688;28;20203;-80
2021/11/11 08:08:38;;;;;;;50.97;25.40;;;3.50;99.90;;;;;;5015347;28;20246;-78
2021/11/11 08:11:06;;;;;;;53.92;25.70;;;3.50;99.90;;;;;;5021533;28;20295;-81
2021/11/11 08:13:34;;;;;;;54.72;26.67;;;3.60;99.90;;;;;;5022387;28;20647;-79
2021/11/11 08:16:01;;;;;;;58.72;25.92;;;3.60;99.90;;;;;;5023389;28;20227;-78
2021/11/11 08:18:28;;;;;;;74.47;26.75;;;3.60;99.90;;;;;;5015720;28;20322;-78
2021/11/11 08:20:55;;;;;;;52.22;27.20;;;3.60;99.90;;;;;;5019744;28;20243;-78
2021/11/11 08:23:23;;;;;;;47.10;23.40;;;3.70;99.90;;;;;;5018434;28;20196;-80
2021/11/11 08:25:50;;;;;;;58.55;28.08;;;3.80;99.90;;;;;;5022109;28;20200;-82
2021/11/11 08:28:19;;;;;;;52.78;28.05;;;3.80;99.90;;;;;;5019592;28;20228;-79
2021/11/11 08:30:50;;;;;;;52.33;26.08;;;3.80;99.90;;;;;;5019268;28;20239;-80
2021/11/11 08:33:17;;;;;;;58.33;27.02;;;3.80;99.90;;;;;;5018833;28;20230;-80
2021/11/11 08:35:44;;;;;;;48.47;24.90;;;3.80;99.90;;;;;;5018157;28;20203;-79
2021/11/11 08:38:12;;;;;;;49.67;24.77;;;3.80;99.90;;;;;;5018548;28;20248;-80
2021/11/11 08:40:39;;;;;;;46.92;23.58;;;3.80;99.90;;;;;;5020919;28;20204;-81
2021/11/11 08:43:06;;;;;;;50.67;25.33;;;4.00;99.90;;;;;;5021305;28;20204;-80
2021/11/11 08:45:34;;;;;;;56.90;25.38;;;4.00;99.90;;;;;;5018984;28;20263;-79
2021/11/11 08:48:02;;;;;;;47.88;23.40;;;4.00;99.90;;;;;;5018876;28;20675;-78
2021/11/11 08:50:31;;;;;;;43.10;22.77;;;4.10;99.90;;;;;;5018705;28;20204;-78
2021/11/11 08:52:59;;;;;;;50.55;25.05;;;4.10;99.90;;;;;;5019681;28;20204;-79
2021/11/11 08:55:30;;;;;;;46.90;23.50;;;4.20;99.90;;;;;;5019203;28;20316;-79
2021/11/11 08:57:58;;;;;;;48.13;24.05;;;4.20;99.90;;;;;;5017953;28;20251;-78
2021/11/11 09:00:29;;;;;;;46.50;24.45;;;4.10;99.90;;;;;;4999997;28;20299;-79
2021/11/11 09:02:57;;;;;;;47.55;23.52;;;4.10;99.90;;;;;;5016853;28;20200;-80
2021/11/11 09:05:30;;;;;;;48.65;24.45;;;4.20;99.90;;;;;;5018964;28;20287;-81
2021/11/11 09:07:57;;;;;;;43.40;21.63;;;4.20;99.90;;;;;;5019730;28;20224;-81
2021/11/11 09:10:24;;;;;;;45.30;22.35;;;4.30;99.90;;;;;;5017532;28;20291;-81
2021/11/11 09:12:53;;;;;;;44.85;22.48;;;4.20;99.90;;;;;;5018834;28;20295;-80
2021/11/11 09:15:24;;;;;;;46.00;21.73;;;4.30;99.90;;;;;;5018690;28;20220;-80
2021/11/11 09:17:52;;;;;;;46.50;23.48;;;4.50;99.90;;;;;;5018336;28;20299;-80
2021/11/11 09:20:20;;;;;;;49.40;23.35;;;4.50;99.90;;;;;;5018216;28;20231;-80
2021/11/11 09:22:50;;;;;;;58.40;23.48;;;4.50;99.90;;;;;;5018914;28;20218;-79
2021/11/11 09:25:17;;;;;;;48.28;23.95;;;4.40;99.90;;;;;;5013433;28;20201;-78
2021/11/11 09:27:46;;;;;;;53.30;24.98;;;4.40;99.90;;;;;;5008259;28;20336;-80
2021/11/11 09:30:17;;;;;;;53.97;24.83;;;4.50;99.90;;;;;;5028072;28;20302;-80
2021/11/11 09:32:45;;;;;;;53.42;25.20;;;4.50;99.90;;;;;;5037377;28;20219;-79
2021/11/11 09:35:13;;;;;;;46.33;24.45;;;4.50;99.90;;;;;;5035436;28;20292;-78
2021/11/11 09:37:41;;;;;;;55.38;26.15;;;4.60;99.90;;;;;;5025814;28;20228;-78
2021/11/11 09:40:12;;;;;;;47.97;23.85;;;4.60;99.90;;;;;;5026092;28;20200;-80
2021/11/11 09:42:40;;;;;;;57.20;27.35;;;4.60;99.90;;;;;;5026101;28;20216;-79
2021/11/11 09:45:10;;;;;;;52.65;28.27;;;4.60;99.90;;;;;;5030403;28;20209;-79
2021/11/11 09:47:38;;;;;;;57.72;28.77;;;4.60;99.90;;;;;;5030834;28;20235;-79
2021/11/11 09:50:07;;;;;;;59.47;31.27;;;4.50;99.90;;;;;;5030100;28;20473;-81
2021/11/11 09:52:34;;;;;;;59.22;28.50;;;4.50;99.90;;;;;;5020117;28;20206;-80
2021/11/11 10:00:34;;;;;;;61.38;30.63;;;4.60;99.90;;;;;;5021438;28;20207;-81
2021/11/11 10:03:02;;;;;;;55.15;27.63;;;4.50;99.90;;;;;;5025407;28;20271;-80
2021/11/11 10:05:29;;;;;;;56.42;28.48;;;4.50;99.90;;;;;;5035319;28;20214;-79
2021/11/11 10:07:56;;;;;;;51.10;27.40;;;4.40;99.90;;;;;;5033009;28;20224;-80
2021/11/11 10:10:34;;;;;;;62.42;28.95;;;4.40;99.90;;;;;;5030307;28;20294;-80
2021/11/11 10:13:18;;;;;;;50.67;25.83;;;4.20;99.90;;;;;;5024040;28;20227;-79
2021/11/11 10:16:08;;;;;;;47.53;26.42;;;4.20;99.90;;;;;;5034217;28;20207;-79
2021/11/11 10:18:53;;;;;;;64.30;29.45;;;4.20;99.90;;;;;;5025818;28;20258;-79
2021/11/11 10:21:33;;;;;;;52.00;27.05;;;4.30;99.90;;;;;;5036348;28;20191;-81
2021/11/11 10:24:34;;;;;;;48.55;27.23;;;4.40;99.90;;;;;;5032773;28;20213;-80
2021/11/11 10:27:05;;;;;;;51.10;27.48;;;4.30;99.90;;;;;;5028359;28;20247;-78
2021/11/11 10:29:38;;;;;;;53.78;28.08;;;4.20;99.90;;;;;;5027246;28;20226;-79
2021/11/11 10:32:10;;;;;;;56.88;28.80;;;4.40;99.90;;;;;;5045498;28;20196;-78
2021/11/11 10:35:30;;;;;;;52.88;26.52;;;4.40;99.90;;;;;;5043406;28;20208;-80
2021/11/11 10:38:01;;;;;;;51.17;27.73;;;4.50;99.90;;;;;;5058591;23;21133;-79
2021/11/11 10:40:32;;;;;;;53.70;27.55;;;4.60;99.90;;;;;;5053720;28;20242;-78
2021/11/11 10:43:02;;;;;;;54.00;28.83;;;4.70;99.90;;;;;;5052300;28;20199;-79
2021/11/11 10:45:40;;;;;;;44.95;25.33;;;4.70;99.90;;;;;;5052134;28;20207;-80
2021/11/11 10:48:10;;;;;;;47.15;25.48;;;4.90;99.90;;;;;;5071627;23;20242;-80
2021/11/11 10:50:42;;;;;;;48.33;25.77;;;4.90;99.90;;;;;;5032558;28;20225;-82
2021/11/11 10:53:11;;;;;;;46.33;25.08;;;5.10;99.90;;;;;;5038157;28;20200;-80
2021/11/11 10:55:43;;;;;;;46.88;26.85;;;5.10;99.90;;;;;;5045759;28;20239;-79
2021/11/11 10:58:12;;;;;;;50.83;27.67;;;5.10;99.50;;;;;;5038177;28;20203;-81
2021/11/11 11:00:46;;;;;;;45.78;25.75;;;5.20;98.80;;;;;;5033779;28;20216;-80
2021/11/11 11:03:15;;;;;;;44.65;25.10;;;5.30;98.40;;;;;;5062356;23;20227;-77
2021/11/11 11:05:49;;;;;;;46.42;26.45;;;5.40;97.50;;;;;;5063759;28;20207;-76
2021/11/11 11:08:18;;;;;;;42.20;24.05;;;5.50;96.70;;;;;;5048192;28;20291;-78
2021/11/11 11:10:50;;;;;;;47.60;25.95;;;5.40;96.40;;;;;;5044473;28;20232;-77
2021/11/11 11:13:20;;;;;;;34.22;22.88;;;5.40;95.60;;;;;;5040268;28;20282;-77
2021/11/11 11:15:55;;;;;;;41.38;23.02;;;5.50;95.40;;;;;;5027690;28;20235;-78
2021/11/11 11:18:26;;;;;;;39.65;22.92;;;5.60;95.30;;;;;;5025536;28;20201;-77
2021/11/11 11:20:59;;;;;;;36.47;22.42;;;5.70;94.10;;;;;;5035684;28;20255;-77
2021/11/11 11:23:38;;;;;;;37.85;22.88;;;5.60;93.40;;;;;;5026059;28;20320;-77
2021/11/11 11:26:24;;;;;;;37.15;21.67;;;5.50;93.50;;;;;;5012300;28;20662;-78
2021/11/11 11:29:08;;;;;;;36.85;22.23;;;5.50;93.20;;;;;;5024904;28;20653;-77
2021/11/11 11:31:44;;;;;;;40.22;23.65;;;5.40;92.40;;;;;;5018768;28;20245;-77
2021/11/11 11:34:16;;;;;;;39.50;22.23;;;5.30;92.40;;;;;;5032363;28;20203;-78
2021/11/11 11:36:47;;;;;;;43.42;24.75;;;5.30;93.10;;;;;;5023532;28;20296;-78
2021/11/11 11:39:22;;;;;;;40.30;23.80;;;5.30;93.40;;;;;;5029333;28;20203;-79
2021/11/11 11:41:49;;;;;;;39.70;24.83;;;5.30;93.50;;;;;;5032138;28;20230;-78
2021/11/11 11:44:32;;;;;;;38.05;23.10;;;5.30;93.50;;;;;;5031589;28;20295;-78
2021/11/11 11:47:08;;;;;;;40.38;22.92;;;5.30;93.60;;;;;;5046497;28;20210;-76
2021/11/11 11:49:36;;;;;;;39.80;23.35;;;5.20;94.30;;;;;;5042880;28;20217;-79
2021/11/11 11:52:05;;;;;;;40.67;22.88;;;5.20;94.70;;;;;;5031853;28;20220;-77
2021/11/11 11:54:38;;;;;;;39.83;23.05;;;5.20;95.00;;;;;;5032953;28;20322;-78
2021/11/11 11:57:09;;;;;;;38.15;24.23;;;5.30;95.30;;;;;;5037961;28;20637;-78
2021/11/11 11:59:40;;;;;;;43.35;24.70;;;5.30;95.30;;;;;;5020149;28;20218;-78
2021/11/11 12:02:21;;;;;;;42.40;25.02;;;5.10;95.20;;;;;;5035184;28;20290;-78
2021/11/11 12:07:55;;;;;;;43.97;25.33;;;5.10;96.50;;;;;;5012048;28;20296;-78
2021/11/11 12:39:40;;;;;;;48.38;27.20;;;5.00;97.80;;;;;;5027763;28;20218;-77
2021/11/11 12:42:09;;;;;;;53.28;27.38;;;5.10;97.90;;;;;;5012313;28;20710;-77
2021/11/11 12:44:37;;;;;;;54.70;27.90;;;5.20;97.60;;;;;;5022759;28;20537;-76
2021/11/11 12:47:05;;;;;;;52.75;27.75;;;5.20;97.40;;;;;;5030910;28;20203;-77
2021/11/11 12:49:36;;;;;;;65.20;30.10;;;5.20;96.90;;;;;;5026689;28;20663;-77
2021/11/11 12:52:23;;;;;;;55.65;29.27;;;5.20;97.20;;;;;;5019791;28;20236;-76
2021/11/11 12:54:51;;;;;;;58.65;27.63;;;5.10;96.50;;;;;;5020902;28;20255;-78
2021/11/11 12:57:20;;;;;;;52.33;29.13;;;5.00;97.90;;;;;;5026974;28;20204;-77
2021/11/11 12:59:47;;;;;;;53.35;28.58;;;5.10;98.50;;;;;;5025613;28;20215;-77
2021/11/11 13:02:14;;;;;;;56.55;28.75;;;5.00;98.10;;;;;;5019867;28;20720;-75
2021/11/11 13:04:49;;;;;;;51.30;28.27;;;5.10;99.40;;;;;;5015258;28;20592;-76
2021/11/11 13:07:26;;;;;;;56.15;29.85;;;5.30;99.10;;;;;;5015165;28;20199;-79
2021/11/11 13:10:06;;;;;;;53.58;29.83;;;5.30;98.20;;;;;;5011889;28;20570;-78
2021/11/11 13:12:33;;;;;;;60.70;29.77;;;5.30;97.80;;;;;;5015604;28;20227;-76
2021/11/11 13:15:06;;;;;;;57.95;30.27;;;5.40;97.70;;;;;;5013934;28;20233;-78
2021/11/11 13:17:41;;;;;;;58.40;28.70;;;5.40;97.10;;;;;;5024333;28;20719;-79
2021/11/11 13:20:34;;;;;;;58.50;29.75;;;5.40;96.70;;;;;;5015755;28;20270;-78
2021/11/11 13:23:13;;;;;;;54.58;29.13;;;5.30;96.00;;;;;;5018473;28;20277;-78
2021/11/11 13:43:34;;;;;;;58.03;30.00;;;5.30;97.10;;;;;;5117790;27;20535;-78
2021/11/11 14:00:24;;;;;;;62.75;33.80;;;5.70;95.10;;;;;;5108481;28;20220;-74
2021/11/11 15:45:02;;;;;;;63.55;29.17;;;4.70;99.90;;;;;;5077473;28;20188;-78
2021/11/11 16:01:30;;;;;;;72.35;31.67;;;4.60;99.90;;;;;;5074408;28;20229;-77
2021/11/11 16:20:45;;;;;;;78.20;32.80;;;4.60;99.90;;;;;;5054780;28;20198;-75
2021/11/11 16:23:19;;;;;;;85.35;34.17;;;4.60;99.90;;;;;;5056948;28;20244;-78
2021/11/11 16:26:10;;;;;;;83.28;32.38;;;4.70;99.90;;;;;;5053756;28;20247;-76
2021/11/11 16:28:37;;;;;;;81.93;34.95;;;4.70;99.90;;;;;;5055708;28;20258;-76
2021/11/11 16:31:04;;;;;;;73.60;32.75;;;4.70;99.90;;;;;;5084167;28;20202;-77
2021/11/11 16:33:33;;;;;;;68.05;31.10;;;4.70;99.90;;;;;;5073439;28;20226;-75